createdAt,value
2022-08-26T00:00:21.817Z,5.85
2022-08-26T00:03:09.388Z,4.95
2022-08-26T00:05:57.062Z,5.70
2022-08-26T00:08:45.468Z,5.70
2022-08-26T00:11:37.779Z,5.65
2022-08-26T00:14:31.186Z,6.22
2022-08-26T00:17:18.953Z,5.75
2022-08-26T00:20:08.749Z,5.72
2022-08-26T00:22:55.854Z,5.95
2022-08-26T00:25:43.383Z,5.97
2022-08-26T00:28:30.629Z,5.93
2022-08-26T00:31:20.114Z,5.75
2022-08-26T00:34:09.383Z,6.30
2022-08-26T00:36:57.134Z,5.70
2022-08-26T00:39:47.796Z,6.55
2022-08-26T00:42:34.920Z,6.05
2022-08-26T00:45:22.735Z,5.70
2022-08-26T00:48:12.914Z,6.05
2022-08-26T00:51:12.167Z,6.20
2022-08-26T00:54:05.357Z,5.53
2022-08-26T00:57:00.760Z,5.40
2022-08-26T00:59:54.683Z,5.35
2022-08-26T01:02:46.641Z,6.15
2022-08-26T01:05:34.084Z,5.75
2022-08-26T01:08:23.012Z,5.70
2022-08-26T01:11:12.381Z,5.97
2022-08-26T01:14:02.824Z,5.95
2022-08-26T01:16:50.262Z,6.38
2022-08-26T01:19:46.880Z,6.00
2022-08-26T01:22:44.484Z,6.45
2022-08-26T01:25:35.038Z,5.53
2022-08-26T01:28:28.976Z,6.60
2022-08-26T01:31:20.753Z,7.03
2022-08-26T01:34:24.099Z,6.75
2022-08-26T01:37:17.023Z,7.10
2022-08-26T01:40:09.482Z,5.82
2022-08-26T01:45:45.513Z,5.50
2022-08-26T01:48:35.872Z,6.03
2022-08-26T01:51:28.628Z,6.25
2022-08-26T01:57:03.676Z,6.22
2022-08-26T01:59:53.011Z,6.60
2022-08-26T02:02:46.611Z,6.05
2022-08-26T02:05:33.758Z,6.13
2022-08-26T02:08:28.013Z,6.95
2022-08-26T02:11:15.400Z,6.35
2022-08-26T02:14:11.535Z,6.50
2022-08-26T02:16:59.381Z,6.55
2022-08-26T02:19:51.200Z,6.30
2022-08-26T02:22:40.375Z,6.35
2022-08-26T02:25:34.778Z,6.90
2022-08-26T02:28:22.246Z,6.00
2022-08-26T02:31:13.926Z,6.30
2022-08-26T02:34:32.042Z,6.95
2022-08-26T02:37:23.010Z,6.57
2022-08-26T02:40:16.840Z,6.55
2022-08-26T02:43:04.679Z,7.18
2022-08-26T02:45:55.838Z,7.35
2022-08-26T02:48:42.972Z,7.15
2022-08-26T02:51:31.072Z,7.07
2022-08-26T02:54:23.338Z,6.47
2022-08-26T02:57:13.310Z,6.40
2022-08-26T03:00:01.386Z,6.85
2022-08-26T03:02:51.394Z,6.57
2022-08-26T03:05:39.462Z,7.72
2022-08-26T03:08:27.423Z,7.72
2022-08-26T03:11:14.940Z,6.97
2022-08-26T03:14:04.963Z,6.95
2022-08-26T03:16:53.952Z,7.28
2022-08-26T03:19:45.682Z,6.90
2022-08-26T03:22:33.602Z,7.40
2022-08-26T03:25:22.374Z,7.93
2022-08-26T03:28:10.950Z,7.90
2022-08-26T03:30:58.364Z,7.90
2022-08-26T03:33:46.455Z,7.05
2022-08-26T03:36:41.600Z,7.45
2022-08-26T03:39:31.867Z,7.10
2022-08-26T03:42:21.352Z,7.22
2022-08-26T03:45:10.564Z,7.88
2022-08-26T03:48:00.385Z,7.40
2022-08-26T03:50:48.860Z,7.45
2022-08-26T03:53:38.656Z,8.35
2022-08-26T03:56:26.202Z,7.95
2022-08-26T03:59:13.426Z,7.60
2022-08-26T04:02:03.003Z,7.75
2022-08-26T04:04:55.735Z,7.72
2022-08-26T04:07:46.082Z,7.35
2022-08-26T04:10:38.334Z,7.40
2022-08-26T04:13:25.452Z,8.45
2022-08-26T04:16:12.937Z,8.13
2022-08-26T04:19:00.711Z,8.02
2022-08-26T04:21:51.314Z,8.18
2022-08-26T04:24:39.549Z,7.82
2022-08-26T04:27:26.666Z,8.13
2022-08-26T04:30:14.048Z,7.90
2022-08-26T04:33:12.572Z,7.78
2022-08-26T04:36:05.437Z,8.48
2022-08-26T04:38:52.643Z,7.65
2022-08-26T04:41:40.901Z,8.35
2022-08-26T04:44:31.123Z,8.65
2022-08-26T04:47:18.252Z,8.45
2022-08-26T04:50:07.765Z,8.45
2022-08-26T04:52:57.606Z,8.80
2022-08-26T04:55:45.072Z,8.05
2022-08-26T04:58:32.846Z,8.40
2022-08-26T05:01:22.642Z,8.27
2022-08-26T05:04:11.506Z,7.90
2022-08-26T05:07:02.342Z,7.20
2022-08-26T05:09:50.135Z,8.07
2022-08-26T05:12:39.580Z,8.25
2022-08-26T05:15:27.873Z,7.75
2022-08-26T05:18:21.338Z,7.75
2022-08-26T05:21:17.613Z,7.75
2022-08-26T05:24:05.814Z,7.97
2022-08-26T05:26:56.524Z,8.10
2022-08-26T05:29:43.750Z,7.65
2022-08-26T05:32:31.888Z,7.80
2022-08-26T05:35:36.109Z,7.57
2022-08-26T05:38:25.421Z,7.60
2022-08-26T05:41:34.564Z,8.40
2022-08-26T05:44:28.499Z,7.78
2022-08-26T05:47:15.600Z,8.18
2022-08-26T05:50:05.535Z,8.35
2022-08-26T05:52:52.985Z,9.07
2022-08-26T05:55:51.486Z,7.22
2022-08-26T05:58:41.090Z,8.25
2022-08-26T06:01:32.471Z,6.90
2022-08-26T06:04:27.068Z,8.43
2022-08-26T06:07:36.304Z,7.47
2022-08-26T06:10:32.393Z,7.25
2022-08-26T06:13:26.880Z,7.05
2022-08-26T06:16:17.495Z,7.32
2022-08-26T06:19:10.582Z,7.07
2022-08-26T06:22:24.289Z,7.35
2022-08-26T06:25:31.737Z,6.97
2022-08-26T06:28:18.878Z,7.25
2022-08-26T06:31:06.386Z,7.15
2022-08-26T06:33:57.120Z,7.55
2022-08-26T06:36:49.438Z,7.13
2022-08-26T06:39:42.372Z,7.40
2022-08-26T06:42:29.711Z,6.53
2022-08-26T06:45:19.210Z,6.40
2022-08-26T06:48:10.097Z,6.28
2022-08-26T06:51:19.660Z,6.47
2022-08-26T06:54:10.263Z,6.00
2022-08-26T06:56:57.630Z,6.22
2022-08-26T06:59:48.095Z,6.03
2022-08-26T07:02:38.991Z,6.70
2022-08-26T07:05:28.584Z,6.28
2022-08-26T07:08:17.166Z,6.30
2022-08-26T07:11:06.596Z,6.32
2022-08-26T07:13:59.031Z,6.20
2022-08-26T07:16:47.959Z,6.47
2022-08-26T07:19:38.470Z,5.47
2022-08-26T07:22:29.395Z,6.07
2022-08-26T07:25:20.305Z,6.13
2022-08-26T07:28:07.836Z,6.00
2022-08-26T07:30:55.187Z,5.95
2022-08-26T07:33:43.723Z,5.38
2022-08-26T07:36:30.838Z,5.30
2022-08-26T07:39:19.027Z,5.63
2022-08-26T07:42:07.861Z,4.55
2022-08-26T07:44:57.993Z,4.15
2022-08-26T07:47:45.195Z,4.32
2022-08-26T07:50:48.968Z,4.53
2022-08-26T07:53:37.315Z,4.15
2022-08-26T07:56:27.457Z,3.70
2022-08-26T07:59:17.892Z,4.22
2022-08-26T08:02:05.161Z,4.38
2022-08-26T08:04:53.107Z,4.10
2022-08-26T08:07:45.332Z,3.88
2022-08-26T08:13:20.186Z,4.00
2022-08-26T08:16:12.977Z,3.40
2022-08-26T08:19:00.277Z,3.53
2022-08-26T08:21:50.080Z,3.38
2022-08-26T08:24:40.968Z,3.17
2022-08-26T08:27:29.046Z,3.10
2022-08-26T08:30:20.879Z,3.38
2022-08-26T08:33:12.825Z,2.95
2022-08-26T08:36:06.355Z,2.90
2022-08-26T08:38:58.923Z,3.05
2022-08-26T08:42:07.091Z,2.67
2022-08-26T08:44:59.758Z,2.92
2022-08-26T08:47:54.030Z,3.63
2022-08-26T08:50:49.222Z,3.55
2022-08-26T08:53:44.425Z,3.33
2022-08-26T08:56:39.588Z,3.25
2022-08-26T08:59:45.218Z,3.30
2022-08-26T09:02:49.745Z,3.17
2022-08-26T09:05:48.540Z,2.92
2022-08-26T09:08:36.942Z,4.18
2022-08-26T09:11:24.369Z,3.60
2022-08-26T09:14:11.972Z,3.22
2022-08-26T09:17:15.765Z,3.75
2022-08-26T09:20:30.310Z,3.95
2022-08-26T09:23:18.199Z,3.70
2022-08-26T09:26:25.873Z,3.53
2022-08-26T09:29:27.154Z,4.38
2022-08-26T09:32:25.399Z,4.07
2022-08-26T09:35:31.130Z,4.28
2022-08-26T09:38:32.826Z,3.55
2022-08-26T09:41:28.243Z,3.97
2022-08-26T09:44:20.341Z,3.92
2022-08-26T09:47:09.628Z,4.45
2022-08-26T09:50:22.931Z,4.00
2022-08-26T09:53:40.530Z,4.57
2022-08-26T09:56:39.172Z,3.95
2022-08-26T09:59:30.819Z,4.22
2022-08-26T10:05:29.786Z,5.13
2022-08-26T10:08:20.987Z,4.82
2022-08-26T10:11:28.956Z,4.47
2022-08-26T10:14:25.057Z,4.90
2022-08-26T10:17:31.762Z,4.10
2022-08-26T10:20:33.560Z,4.03
2022-08-26T10:23:27.165Z,4.30
2022-08-26T10:26:25.785Z,4.75
2022-08-26T10:29:23.026Z,4.97
2022-08-26T10:32:24.013Z,4.40
2022-08-26T10:35:15.026Z,4.70
2022-08-26T10:38:08.954Z,5.30
2022-08-26T10:41:10.646Z,5.47
2022-08-26T10:44:02.578Z,5.30
2022-08-26T10:46:56.910Z,5.68
2022-08-26T10:49:45.966Z,4.70
2022-08-26T10:52:34.095Z,4.55
2022-08-26T10:55:50.505Z,4.72
2022-08-26T10:59:14.701Z,5.13
2022-08-26T11:02:07.105Z,4.60
2022-08-26T11:05:04.419Z,4.78
2022-08-26T11:07:56.135Z,4.43
2022-08-26T11:10:59.091Z,4.85
2022-08-26T11:16:52.424Z,5.10
2022-08-26T11:20:02.167Z,4.32
2022-08-26T11:22:59.532Z,4.55
2022-08-26T11:26:05.250Z,4.50
2022-08-26T11:28:53.347Z,4.63
2022-08-26T11:31:42.957Z,4.43
2022-08-26T11:34:56.370Z,4.35
2022-08-26T11:37:52.827Z,4.55
2022-08-26T11:40:45.380Z,5.18
2022-08-26T11:43:34.618Z,4.18
2022-08-26T11:46:27.992Z,4.50
2022-08-26T11:49:17.247Z,5.63
2022-08-26T11:52:14.470Z,4.90
2022-08-26T11:55:11.614Z,4.78
2022-08-26T11:58:05.733Z,4.20
2022-08-26T12:01:09.840Z,4.55
2022-08-26T12:04:00.400Z,4.80
2022-08-26T12:06:58.696Z,5.00
2022-08-26T12:10:02.076Z,4.60
2022-08-26T12:12:54.896Z,4.00
2022-08-26T12:15:53.432Z,4.53
2022-08-26T12:18:45.647Z,4.15
2022-08-26T12:21:35.489Z,3.42
2022-08-26T12:24:22.879Z,3.65
2022-08-26T12:27:17.889Z,3.78
2022-08-26T12:30:12.328Z,3.72
2022-08-26T12:33:22.879Z,4.72
2022-08-26T12:36:11.039Z,4.80
2022-08-26T12:39:36.752Z,5.07
2022-08-26T12:42:42.130Z,4.80
2022-08-26T12:45:33.445Z,4.90
2022-08-26T12:48:29.593Z,4.97
2022-08-26T12:51:24.817Z,4.85
2022-08-26T12:54:18.266Z,4.78
2022-08-26T12:57:12.482Z,4.32
2022-08-26T13:00:28.765Z,4.68
2022-08-26T13:03:32.950Z,4.30
2022-08-26T13:06:23.175Z,4.53
2022-08-26T13:09:10.297Z,4.75
2022-08-26T13:12:02.307Z,4.68
2022-08-26T13:14:52.694Z,4.05
2022-08-26T13:17:41.364Z,4.53
2022-08-26T13:20:28.756Z,4.60
2022-08-26T13:23:16.044Z,5.13
2022-08-26T13:26:05.440Z,4.72
2022-08-26T13:29:01.795Z,4.32
2022-08-26T13:31:50.005Z,5.05
2022-08-26T13:34:38.295Z,4.90
2022-08-26T13:37:35.246Z,4.18
2022-08-26T13:40:23.131Z,4.32
2022-08-26T13:43:11.176Z,4.55
2022-08-26T13:45:58.427Z,4.70
2022-08-26T13:48:45.704Z,4.40
2022-08-26T13:51:33.777Z,4.70
2022-08-26T13:54:21.265Z,4.38
2022-08-26T13:57:09.283Z,4.60
2022-08-26T13:59:59.085Z,4.07
2022-08-26T14:02:46.998Z,4.40
2022-08-26T14:05:34.316Z,4.53
2022-08-26T14:08:25.361Z,4.10
2022-08-26T14:11:12.830Z,3.97
2022-08-26T14:13:59.949Z,4.45
2022-08-26T14:16:59.651Z,3.83
2022-08-26T14:19:51.881Z,4.00
2022-08-26T14:25:39.896Z,4.13
2022-08-26T14:28:29.225Z,5.22
2022-08-26T14:31:17.116Z,4.95
2022-08-26T14:34:09.618Z,4.18
2022-08-26T14:36:56.755Z,3.97
2022-08-26T14:39:47.504Z,4.00
2022-08-26T14:42:35.268Z,4.47
2022-08-26T14:45:24.983Z,4.70
2022-08-26T14:48:12.283Z,5.07
2022-08-26T14:50:59.441Z,6.28
2022-08-26T14:54:04.956Z,7.07
2022-08-26T14:56:58.594Z,6.13
2022-08-26T14:59:50.031Z,6.55
2022-08-26T15:02:38.869Z,5.53
2022-08-26T15:05:26.111Z,5.03
2022-08-26T15:08:13.620Z,6.25
2022-08-26T15:11:00.799Z,5.45
2022-08-26T15:13:50.292Z,5.20
2022-08-26T15:16:40.012Z,5.47
2022-08-26T15:19:27.291Z,4.78
2022-08-26T15:22:14.524Z,4.65
2022-08-26T15:25:01.783Z,5.43
2022-08-26T15:27:49.177Z,4.15
2022-08-26T15:30:38.795Z,4.93
2022-08-26T15:33:25.991Z,4.50
2022-08-26T15:36:13.510Z,5.15
2022-08-26T15:39:01.384Z,4.45
2022-08-26T15:41:48.957Z,4.80
2022-08-26T15:44:36.707Z,4.60
2022-08-26T15:47:23.979Z,5.20
2022-08-26T15:50:11.187Z,5.28
2022-08-26T15:53:01.308Z,4.70
2022-08-26T15:55:49.409Z,4.53
2022-08-26T15:58:37.093Z,4.20
2022-08-26T16:01:27.779Z,3.80
2022-08-26T16:04:18.570Z,3.33
2022-08-26T16:07:06.420Z,3.47
2022-08-26T16:09:56.732Z,3.15
2022-08-26T16:12:44.056Z,3.08
2022-08-26T16:15:34.537Z,3.33
2022-08-26T16:18:23.610Z,2.85
2022-08-26T16:21:16.987Z,3.10
2022-08-26T16:24:04.793Z,3.25
2022-08-26T16:26:51.913Z,3.55
2022-08-26T16:29:40.137Z,3.42
2022-08-26T16:32:30.743Z,3.35
2022-08-26T16:35:19.209Z,4.10
2022-08-26T16:38:09.614Z,4.10
2022-08-26T16:40:57.105Z,4.13
2022-08-26T16:43:45.968Z,5.47
2022-08-26T16:46:34.087Z,5.85
2022-08-26T16:49:21.300Z,6.70
2022-08-26T16:52:11.825Z,7.22
2022-08-26T16:55:03.398Z,7.57
2022-08-26T16:57:51.758Z,7.82
2022-08-26T17:00:41.449Z,7.93
2022-08-26T17:03:33.396Z,8.63
2022-08-26T17:06:22.959Z,9.27
2022-08-26T17:09:12.867Z,10.25
2022-08-26T17:12:00.113Z,9.32
2022-08-26T17:14:49.417Z,8.80
2022-08-26T17:17:39.641Z,11.13
2022-08-26T17:20:27.000Z,10.27
2022-08-26T17:23:14.689Z,10.02
2022-08-26T17:26:05.612Z,9.65
2022-08-26T17:28:53.576Z,8.50
2022-08-26T17:31:40.988Z,8.15
2022-08-26T17:34:30.817Z,7.88
2022-08-26T17:37:20.240Z,7.88
2022-08-26T17:40:10.416Z,7.35
2022-08-26T17:42:59.070Z,6.75
2022-08-26T17:45:46.751Z,5.90
2022-08-26T17:48:35.038Z,5.60
2022-08-26T17:51:23.445Z,5.75
2022-08-26T17:54:10.644Z,4.45
2022-08-26T17:56:57.954Z,4.28
2022-08-26T17:59:47.099Z,4.38
2022-08-26T18:02:37.929Z,3.80
2022-08-26T18:05:25.245Z,3.40
2022-08-26T18:08:14.486Z,3.58
2022-08-26T18:11:02.052Z,4.20
2022-08-26T18:13:49.265Z,3.95
2022-08-26T18:16:42.517Z,4.80
2022-08-26T18:19:29.987Z,5.53
2022-08-26T18:22:20.506Z,5.35
2022-08-26T18:25:09.076Z,5.55
2022-08-26T18:28:00.393Z,5.20
2022-08-26T18:30:48.387Z,6.28
2022-08-26T18:33:35.628Z,6.07
2022-08-26T18:36:28.920Z,5.78
2022-08-26T18:39:25.017Z,6.35
2022-08-26T18:42:54.019Z,5.78
2022-08-26T18:45:43.941Z,6.53
2022-08-26T18:48:32.629Z,5.78
2022-08-26T18:51:25.768Z,6.03
2022-08-26T18:54:28.234Z,6.05
2022-08-26T18:57:15.489Z,5.82
2022-08-26T19:00:06.492Z,5.43
2022-08-26T19:02:56.150Z,4.47
2022-08-26T19:05:43.573Z,5.93
2022-08-26T19:08:30.832Z,5.28
2022-08-26T19:11:32.401Z,4.90
2022-08-26T19:14:25.485Z,5.22
2022-08-26T19:17:12.855Z,5.25
2022-08-26T19:20:00.214Z,5.28
2022-08-26T19:22:47.420Z,6.10
2022-08-26T19:25:40.541Z,6.07
2022-08-26T19:28:28.082Z,6.80
2022-08-26T19:31:15.573Z,6.00
2022-08-26T19:34:05.195Z,7.30
2022-08-26T19:36:58.425Z,7.38
2022-08-26T19:39:46.851Z,6.25
2022-08-26T19:42:36.383Z,7.20
2022-08-26T19:45:25.021Z,7.15
2022-08-26T19:48:12.560Z,6.50
2022-08-26T19:50:59.949Z,7.53
2022-08-26T19:53:48.592Z,6.65
2022-08-26T19:56:35.747Z,6.15
2022-08-26T19:59:25.335Z,5.95
2022-08-26T20:02:13.335Z,6.25
2022-08-26T20:05:00.713Z,6.22
2022-08-26T20:07:54.216Z,6.30
2022-08-26T20:10:41.432Z,6.47
2022-08-26T20:13:31.127Z,6.63
2022-08-26T20:16:19.203Z,6.20
2022-08-26T20:19:24.837Z,6.82
2022-08-26T20:22:16.746Z,6.78
2022-08-26T20:25:04.153Z,7.00
2022-08-26T20:27:51.373Z,7.32
2022-08-26T20:30:38.579Z,6.55
2022-08-26T20:33:26.096Z,6.30
2022-08-26T20:36:13.733Z,7.07
2022-08-26T20:39:03.218Z,6.78
2022-08-26T20:41:50.403Z,7.93
2022-08-26T20:44:37.734Z,7.22
2022-08-26T20:47:30.462Z,7.10
2022-08-26T20:50:17.693Z,7.15
2022-08-26T20:53:06.136Z,7.57
2022-08-26T20:55:55.003Z,7.68
2022-08-26T20:58:45.921Z,7.47
2022-08-26T21:01:35.499Z,7.97
2022-08-26T21:04:25.593Z,8.60
2022-08-26T21:07:13.876Z,8.23
2022-08-26T21:10:01.749Z,7.72
2022-08-26T21:12:49.049Z,7.63
2022-08-26T21:15:36.198Z,8.45
2022-08-26T21:18:23.431Z,8.50
2022-08-26T21:21:10.715Z,7.78
2022-08-26T21:24:00.668Z,8.35
2022-08-26T21:26:48.031Z,8.10
2022-08-26T21:29:40.753Z,8.15
2022-08-26T21:35:15.234Z,7.95
2022-08-26T21:38:02.396Z,7.45
2022-08-26T21:41:09.830Z,7.72
2022-08-26T21:43:59.149Z,7.10
2022-08-26T21:46:47.181Z,7.57
2022-08-26T21:49:35.439Z,7.82
2022-08-26T21:52:22.775Z,7.47
2022-08-26T21:55:12.873Z,8.57
2022-08-26T21:58:00.055Z,8.45
2022-08-26T22:00:49.793Z,8.07
2022-08-26T22:03:47.151Z,8.10
2022-08-26T22:06:41.630Z,8.82
2022-08-26T22:09:34.682Z,8.98
2022-08-26T22:12:24.370Z,8.48
2022-08-26T22:15:12.399Z,9.18
2022-08-26T22:17:59.920Z,9.98
2022-08-26T22:20:47.686Z,10.40
2022-08-26T22:23:36.832Z,10.73
2022-08-26T22:26:29.571Z,10.93
2022-08-26T22:32:06.838Z,10.18
2022-08-26T22:34:54.351Z,10.73
2022-08-26T22:37:43.785Z,10.32
2022-08-26T22:40:31.020Z,12.57
2022-08-26T22:43:19.354Z,12.38
2022-08-26T22:46:09.544Z,13.23
2022-08-26T22:48:56.836Z,13.35
2022-08-26T22:51:45.160Z,13.43
2022-08-26T22:54:32.432Z,13.63
2022-08-26T22:57:20.286Z,12.75
2022-08-26T23:00:08.570Z,13.05
2022-08-26T23:02:58.654Z,13.80
2022-08-26T23:05:48.287Z,13.85
2022-08-26T23:08:39.218Z,16.50
2022-08-26T23:11:26.375Z,16.05
2022-08-26T23:14:13.575Z,17.83
2022-08-26T23:17:00.793Z,18.42
2022-08-26T23:19:47.905Z,18.73
2022-08-26T23:22:37.978Z,18.90
2022-08-26T23:25:25.736Z,19.38
2022-08-26T23:28:13.106Z,16.83
2022-08-26T23:31:00.224Z,14.82
2022-08-26T23:34:05.745Z,13.70
2022-08-26T23:36:53.272Z,12.80
2022-08-26T23:39:43.426Z,13.88
2022-08-26T23:42:30.620Z,14.80
2022-08-26T23:45:20.274Z,17.60
2022-08-26T23:48:08.314Z,16.85
2022-08-26T23:51:13.872Z,17.27
2022-08-26T23:54:03.556Z,26.30
2022-08-26T23:56:50.635Z,23.05
2022-08-26T23:59:38.844Z,25.88
